LEGR/GRX METAR and TAF weather

Enter ICAO airport designator
Station Type Date Time Source
LEGR METAR 2019/10/15 08:30 UTC NOAA

LEGR 150830Z 29004KT 250V330 9999 FEW025 12/08 Q1022


Station Type Date Time Source
LEGR Decoded METAR 2019/10/15 08:30 UTC NOAA

Granada / Aeropuerto, Spain (LEGR) 37-11N 003-47W 570M
Oct 15, 2019 - 04:30 AM EDT / 2019.10.15 0830 UTC
Wind: from the WNW (290 degrees) at 5 MPH (4 KT) (direction variable):0
Visibility: greater than 7 mile(s):0
Sky conditions: mostly clear
Temperature: 53 F (12 C)
Dew Point: 46 F (8 C)
Relative Humidity: 76%
Pressure (altimeter): 30.18 in. Hg (1022 hPa)
ob: LEGR 150830Z 29004KT 250V330 9999 FEW025 12/08 Q1022
cycle: 8

Station Type Date Time Source
LEGR TAF 2019/10/15 09:27 UTC NOAA

TAF LEGR 150800Z 1509/1609 28005KT CAVOK TX22/1515Z TN07/1606Z

Example: see airport list